Terminal Aerodrome Forecast
Issued by NWS

Home | Current Version | Previous Version | Graphics & Text | Print | Product List | Glossary On
Versions: 1 2 3 4 5 6 7 8 9 10 11 12 13 14
000
FTUS43 KICT 180520
TAFHUT
TAF
KHUT 180520Z 1806/1906 18006KT P6SM OVC250
     FM180900 18004KT P6SM VCTS BKN080CB
     FM181300 19007KT P6SM FEW025 BKN250
     FM181500 20012KT P6SM FEW250
     FM182000 24010KT P6SM SCT070
     FM190200 35010KT P6SM SCT250=

USA.gov is the U.S. government's official web portal to all federal, state and local government web resources and services.